createdAt,value
2022-08-14T00:02:01.423Z,100.00
2022-08-14T00:05:06.174Z,100.00
2022-08-14T00:08:14.037Z,100.00
2022-08-14T00:11:17.368Z,100.00
2022-08-14T00:14:20.608Z,100.00
2022-08-14T00:17:26.777Z,100.00
2022-08-14T00:20:36.002Z,100.00
2022-08-14T00:23:54.056Z,100.00
2022-08-14T00:26:57.066Z,100.00
2022-08-14T00:29:59.975Z,100.00
2022-08-14T00:33:15.066Z,100.00
2022-08-14T00:36:35.993Z,100.00
2022-08-14T00:39:43.072Z,100.00
2022-08-14T00:42:54.839Z,100.00
2022-08-14T00:45:59.271Z,100.00
2022-08-14T00:49:03.031Z,100.00
2022-08-14T00:52:05.869Z,100.00
2022-08-14T00:55:11.074Z,100.00
2022-08-14T00:58:32.778Z,100.00
2022-08-14T01:01:36.994Z,100.00
2022-08-14T01:04:53.559Z,100.00
2022-08-14T01:07:58.574Z,100.00
2022-08-14T01:11:03.614Z,100.00
2022-08-14T01:14:25.236Z,100.00
2022-08-14T01:17:49.230Z,100.00
2022-08-14T01:21:06.549Z,100.00
2022-08-14T01:24:15.347Z,100.00
2022-08-14T01:27:31.871Z,100.00
2022-08-14T01:30:55.902Z,100.00
2022-08-14T01:35:19.760Z,100.00
2022-08-14T01:37:28.875Z,100.00
2022-08-14T01:40:40.981Z,100.00
2022-08-14T01:43:56.708Z,100.00
2022-08-14T01:47:01.848Z,100.00
2022-08-14T01:50:10.305Z,100.00
2022-08-14T01:53:13.637Z,100.00
2022-08-14T01:56:19.567Z,100.00
2022-08-14T01:59:26.785Z,100.00
2022-08-14T02:02:41.152Z,100.00
2022-08-14T02:05:49.620Z,100.00
2022-08-14T02:08:52.941Z,100.00
2022-08-14T02:11:59.253Z,100.00
2022-08-14T02:15:02.127Z,100.00
2022-08-14T02:18:05.139Z,100.00
2022-08-14T02:21:07.907Z,100.00
2022-08-14T02:24:40.037Z,100.00
2022-08-14T02:28:22.232Z,100.00
2022-08-14T02:31:01.038Z,100.00
2022-08-14T02:34:22.496Z,100.00
2022-08-14T02:37:47.609Z,100.00
2022-08-14T02:40:51.273Z,100.00
2022-08-14T02:43:55.391Z,100.00
2022-08-14T02:47:03.920Z,100.00
2022-08-14T02:50:10.580Z,100.00
2022-08-14T02:53:13.460Z,100.00
2022-08-14T02:56:30.190Z,100.00
2022-08-14T02:59:44.516Z,100.00
2022-08-14T03:02:58.546Z,100.00
2022-08-14T03:06:02.346Z,100.00
2022-08-14T03:09:05.786Z,100.00
2022-08-14T03:12:08.941Z,100.00
2022-08-14T03:15:16.653Z,100.00
2022-08-14T03:18:30.682Z,100.00
2022-08-14T03:21:36.405Z,100.00
2022-08-14T03:24:39.347Z,100.00
2022-08-14T03:27:48.488Z,100.00
2022-08-14T03:31:02.960Z,100.00
2022-08-14T03:34:05.727Z,100.00
2022-08-14T03:37:51.008Z,100.00
2022-08-14T03:40:38.187Z,100.00
2022-08-14T03:43:41.209Z,100.00
2022-08-14T03:46:54.437Z,100.00
2022-08-14T03:49:58.303Z,100.00
2022-08-14T03:53:02.129Z,100.00
2022-08-14T03:56:06.070Z,100.00
2022-08-14T03:59:18.029Z,100.00
2022-08-14T04:02:33.002Z,100.00
2022-08-14T04:05:43.259Z,100.00
2022-08-14T04:08:53.283Z,100.00
2022-08-14T04:12:01.944Z,100.00
2022-08-14T04:15:05.906Z,100.00
2022-08-14T04:18:11.886Z,100.00
2022-08-14T04:21:17.117Z,100.00
2022-08-14T04:24:20.073Z,100.00
2022-08-14T04:27:29.426Z,100.00
2022-08-14T04:30:33.368Z,100.00
2022-08-14T04:33:37.741Z,100.00
2022-08-14T04:37:00.928Z,100.00
2022-08-14T04:40:27.760Z,100.00
2022-08-14T04:43:40.162Z,100.00
2022-08-14T04:47:05.395Z,100.00
2022-08-14T04:50:10.656Z,100.00
2022-08-14T04:53:16.375Z,100.00
2022-08-14T04:56:31.476Z,100.00
2022-08-14T04:59:37.400Z,100.00
2022-08-14T05:02:45.839Z,100.00
2022-08-14T05:05:51.697Z,100.00
2022-08-14T05:08:59.894Z,100.00
2022-08-14T05:13:13.282Z,100.00
2022-08-14T05:15:29.492Z,100.00
2022-08-14T05:19:17.631Z,100.00
2022-08-14T05:22:15.692Z,100.00
2022-08-14T05:25:20.708Z,100.00
2022-08-14T05:28:27.030Z,100.00
2022-08-14T05:31:39.690Z,100.00
2022-08-14T05:34:45.518Z,100.00
2022-08-14T05:37:50.132Z,100.00
2022-08-14T05:40:53.135Z,100.00
2022-08-14T05:43:56.789Z,100.00
2022-08-14T05:47:01.078Z,100.00
2022-08-14T05:50:03.893Z,100.00
2022-08-14T05:53:09.235Z,100.00
2022-08-14T05:56:12.297Z,100.00
2022-08-14T05:59:16.648Z,100.00
2022-08-14T06:02:21.798Z,100.00
2022-08-14T06:05:28.890Z,100.00
2022-08-14T06:08:36.546Z,100.00
2022-08-14T06:11:44.629Z,100.00
2022-08-14T06:14:52.703Z,100.00
2022-08-14T06:17:59.267Z,100.00
2022-08-14T06:21:02.840Z,100.00
2022-08-14T06:24:10.574Z,100.00
2022-08-14T06:27:21.635Z,100.00
2022-08-14T06:30:30.285Z,100.00
2022-08-14T06:35:03.715Z,100.00
2022-08-14T06:37:12.894Z,100.00
2022-08-14T06:40:27.984Z,100.00
2022-08-14T06:43:32.459Z,100.00
2022-08-14T06:46:37.259Z,100.00
2022-08-14T06:49:48.512Z,100.00
2022-08-14T06:52:59.676Z,100.00
2022-08-14T06:56:03.884Z,100.00
2022-08-14T06:59:06.742Z,100.00
2022-08-14T07:02:50.766Z,100.00
2022-08-14T07:05:58.425Z,100.00
2022-08-14T07:09:01.637Z,100.00
2022-08-14T07:12:06.193Z,100.00
2022-08-14T07:15:10.361Z,100.00
2022-08-14T07:18:14.875Z,100.00
2022-08-14T07:21:17.851Z,100.00
2022-08-14T07:24:21.751Z,100.00
2022-08-14T07:27:33.414Z,100.00
2022-08-14T07:30:41.999Z,100.00
2022-08-14T07:34:05.553Z,100.00
2022-08-14T07:37:14.783Z,100.00
2022-08-14T07:40:22.243Z,100.00
2022-08-14T07:43:32.164Z,100.00
2022-08-14T07:46:35.119Z,100.00
2022-08-14T07:49:39.898Z,100.00
2022-08-14T07:52:44.483Z,100.00
2022-08-14T07:56:00.195Z,100.00
2022-08-14T07:59:17.832Z,100.00
2022-08-14T08:02:21.863Z,100.00
2022-08-14T08:05:25.914Z,100.00
2022-08-14T08:08:31.245Z,100.00
2022-08-14T08:11:37.525Z,100.00
2022-08-14T08:14:56.015Z,100.00
2022-08-14T08:18:07.448Z,100.00
2022-08-14T08:21:23.009Z,100.00
2022-08-14T08:24:30.040Z,100.00
2022-08-14T08:27:32.884Z,100.00
2022-08-14T08:30:49.466Z,99.88
2022-08-14T08:33:53.829Z,99.96
2022-08-14T08:37:02.717Z,97.32
2022-08-14T08:40:10.187Z,98.11
2022-08-14T08:43:25.186Z,95.15
2022-08-14T08:46:29.842Z,97.30
2022-08-14T08:49:48.464Z,95.75
2022-08-14T08:52:56.045Z,92.51
2022-08-14T08:55:59.354Z,90.33
2022-08-14T08:59:02.733Z,90.49
2022-08-14T09:02:10.289Z,86.66
2022-08-14T09:05:13.425Z,86.68
2022-08-14T09:08:31.075Z,88.83
2022-08-14T09:11:36.252Z,87.67
2022-08-14T09:14:39.978Z,88.91
2022-08-14T09:17:44.709Z,83.15
2022-08-14T09:20:51.907Z,81.34
2022-08-14T09:24:26.799Z,78.03
2022-08-14T09:27:22.729Z,78.65
2022-08-14T09:30:33.148Z,79.13
2022-08-14T09:33:59.419Z,76.95
2022-08-14T09:37:25.887Z,77.41
2022-08-14T09:40:43.718Z,77.21
2022-08-14T09:43:59.581Z,77.58
2022-08-14T09:47:07.458Z,76.13
2022-08-14T09:50:26.858Z,75.27
2022-08-14T09:54:12.694Z,73.74
2022-08-14T09:57:03.370Z,73.07
2022-08-14T10:00:28.296Z,70.59
2022-08-14T10:03:34.692Z,70.35
2022-08-14T10:06:45.364Z,69.86
2022-08-14T10:09:59.671Z,70.37
2022-08-14T10:13:05.420Z,68.34
2022-08-14T10:16:08.714Z,67.65
2022-08-14T10:19:27.581Z,67.67
2022-08-14T10:23:12.880Z,67.37
2022-08-14T10:26:01.882Z,65.93
2022-08-14T10:29:19.803Z,67.39
2022-08-14T10:32:28.652Z,66.00
2022-08-14T10:35:48.187Z,65.95
2022-08-14T10:38:58.852Z,67.47
2022-08-14T10:42:04.501Z,65.96
2022-08-14T10:45:21.874Z,64.83
2022-08-14T10:48:38.173Z,65.03
2022-08-14T10:51:55.435Z,67.23
2022-08-14T10:55:14.079Z,66.50
2022-08-14T10:58:27.777Z,64.04
2022-08-14T11:01:41.548Z,64.42
2022-08-14T11:04:44.700Z,64.92
2022-08-14T11:07:59.706Z,65.83
2022-08-14T11:11:05.917Z,62.86
2022-08-14T11:14:09.781Z,62.74
2022-08-14T11:17:14.120Z,65.25
2022-08-14T11:20:25.678Z,66.08
2022-08-14T11:23:38.406Z,64.95
2022-08-14T11:26:46.059Z,63.63
2022-08-14T11:29:52.830Z,62.71
2022-08-14T11:33:05.359Z,61.74
2022-08-14T11:36:17.908Z,61.20
2022-08-14T11:39:33.820Z,60.63
2022-08-14T11:43:06.326Z,59.38
2022-08-14T11:46:06.568Z,60.23
2022-08-14T11:49:34.858Z,60.02
2022-08-14T11:52:40.445Z,58.83
2022-08-14T11:55:43.491Z,56.74
2022-08-14T11:58:53.044Z,56.59
2022-08-14T12:01:56.231Z,56.34
2022-08-14T12:04:59.115Z,56.22
2022-08-14T12:08:11.893Z,58.39
2022-08-14T12:11:16.949Z,57.61
2022-08-14T12:14:30.252Z,59.74
2022-08-14T12:17:49.701Z,57.64
2022-08-14T12:20:54.563Z,58.02
2022-08-14T12:24:08.546Z,57.33
2022-08-14T12:27:13.104Z,54.70
2022-08-14T12:30:36.005Z,54.55
2022-08-14T12:33:46.931Z,53.08
2022-08-14T12:37:06.273Z,53.21
2022-08-14T12:40:15.660Z,55.44
2022-08-14T12:43:23.536Z,56.25
2022-08-14T12:46:30.618Z,57.15
2022-08-14T12:49:34.257Z,56.63
2022-08-14T12:52:47.424Z,55.47
2022-08-14T12:56:21.490Z,53.17
2022-08-14T12:59:33.181Z,53.66
2022-08-14T13:02:45.884Z,53.36
2022-08-14T13:09:11.081Z,52.14
2022-08-14T13:12:35.106Z,51.39
2022-08-14T13:15:40.523Z,51.42
2022-08-14T13:18:47.000Z,51.32
2022-08-14T13:22:05.474Z,51.43
2022-08-14T13:25:15.784Z,48.51
2022-08-14T13:28:30.265Z,49.17
2022-08-14T13:31:40.835Z,48.70
2022-08-14T13:34:49.446Z,48.99
2022-08-14T13:37:56.669Z,48.44
2022-08-14T13:41:00.327Z,47.53
2022-08-14T13:44:03.373Z,46.45
2022-08-14T13:47:06.996Z,48.75
2022-08-14T13:50:15.734Z,49.00
2022-08-14T13:53:25.158Z,50.41
2022-08-14T13:56:36.339Z,51.47
2022-08-14T13:59:44.657Z,52.03
2022-08-14T14:02:48.679Z,53.32
2022-08-14T14:05:57.051Z,55.79
2022-08-14T14:09:00.334Z,57.39
2022-08-14T14:12:03.993Z,57.63
2022-08-14T14:15:09.680Z,57.80
2022-08-14T14:18:15.409Z,56.34
2022-08-14T14:21:34.523Z,55.30
2022-08-14T14:24:40.215Z,54.16
2022-08-14T14:27:49.657Z,55.13
2022-08-14T14:30:57.428Z,55.08
2022-08-14T14:34:07.585Z,55.32
2022-08-14T14:37:30.558Z,54.27
2022-08-14T14:40:53.622Z,55.58
2022-08-14T14:43:58.978Z,55.88
2022-08-14T14:47:03.055Z,56.73
2022-08-14T14:50:12.792Z,57.66
2022-08-14T14:53:16.977Z,58.26
2022-08-14T14:56:51.688Z,57.94
2022-08-14T14:59:43.920Z,59.44
2022-08-14T15:02:49.772Z,59.18
2022-08-14T15:05:56.291Z,58.39
2022-08-14T15:09:01.490Z,57.60
2022-08-14T15:12:16.241Z,57.20
2022-08-14T15:15:27.847Z,57.22
2022-08-14T15:18:36.736Z,58.95
2022-08-14T15:21:42.384Z,56.56
2022-08-14T15:24:47.000Z,56.45
2022-08-14T15:27:51.105Z,56.61
2022-08-14T15:30:59.209Z,54.27
2022-08-14T15:34:45.929Z,54.79
2022-08-14T15:37:42.340Z,55.48
2022-08-14T15:40:51.494Z,54.58
2022-08-14T15:44:00.074Z,53.81
2022-08-14T15:47:06.938Z,53.99
2022-08-14T15:50:10.845Z,55.26
2022-08-14T15:53:14.521Z,55.87
2022-08-14T15:56:32.914Z,55.06
2022-08-14T16:00:00.415Z,56.62
2022-08-14T16:03:18.008Z,57.92
2022-08-14T16:06:29.748Z,57.46
2022-08-14T16:09:32.871Z,57.73
2022-08-14T16:12:41.511Z,57.83
2022-08-14T16:15:53.395Z,58.63
2022-08-14T16:18:58.229Z,58.61
2022-08-14T16:22:59.053Z,58.21
2022-08-14T16:25:34.560Z,54.96
2022-08-14T16:28:40.094Z,55.39
2022-08-14T16:31:45.076Z,58.01
2022-08-14T16:34:54.990Z,57.19
2022-08-14T16:38:00.147Z,56.60
2022-08-14T16:41:27.512Z,56.83
2022-08-14T16:44:37.806Z,57.41
2022-08-14T16:47:44.343Z,57.52
2022-08-14T16:50:51.101Z,57.27
2022-08-14T16:53:55.070Z,58.72
2022-08-14T16:57:13.419Z,59.57
2022-08-14T17:00:32.866Z,60.65
2022-08-14T17:03:52.971Z,61.34
2022-08-14T17:06:58.778Z,62.26
2022-08-14T17:10:09.671Z,61.95
2022-08-14T17:13:20.265Z,62.07
2022-08-14T17:16:26.013Z,63.58
2022-08-14T17:19:40.268Z,64.38
2022-08-14T17:22:50.035Z,63.66
2022-08-14T17:25:53.033Z,64.34
2022-08-14T17:29:08.889Z,64.75
2022-08-14T17:32:19.266Z,64.21
2022-08-14T17:35:57.419Z,64.91
2022-08-14T17:39:05.918Z,64.13
2022-08-14T17:42:13.277Z,65.41
2022-08-14T17:45:26.659Z,66.59
2022-08-14T17:49:14.194Z,65.58
2022-08-14T17:52:01.863Z,66.45
2022-08-14T17:55:06.189Z,66.63
2022-08-14T17:58:20.527Z,66.91
2022-08-14T18:01:25.923Z,66.30
2022-08-14T18:04:35.017Z,67.62
2022-08-14T18:07:59.266Z,68.16
2022-08-14T18:11:07.444Z,68.08
2022-08-14T18:14:31.361Z,68.69
2022-08-14T18:17:41.210Z,72.05
2022-08-14T18:21:40.623Z,70.52
2022-08-14T18:24:20.337Z,71.83
2022-08-14T18:27:38.326Z,72.02
2022-08-14T18:30:58.843Z,74.88
2022-08-14T18:34:12.232Z,74.30
2022-08-14T18:37:34.173Z,75.61
2022-08-14T18:40:40.164Z,77.01
2022-08-14T18:43:59.142Z,76.03
2022-08-14T18:47:25.574Z,76.55
2022-08-14T18:50:30.746Z,77.06
2022-08-14T18:53:54.531Z,78.04
2022-08-14T18:57:02.091Z,77.86
2022-08-14T19:00:51.107Z,77.90
2022-08-14T19:03:56.186Z,79.42
2022-08-14T19:07:16.544Z,80.18
2022-08-14T19:10:35.268Z,81.44
2022-08-14T19:13:48.409Z,83.93
2022-08-14T19:16:54.397Z,84.99
2022-08-14T19:20:07.375Z,85.98
2022-08-14T19:23:21.467Z,87.21
2022-08-14T19:26:34.007Z,91.09
2022-08-14T19:29:40.143Z,94.37
2022-08-14T19:32:43.258Z,94.88
2022-08-14T19:35:55.892Z,96.13
2022-08-14T19:39:05.978Z,99.77
2022-08-14T19:42:12.762Z,95.38
2022-08-14T19:45:17.448Z,93.94
2022-08-14T19:48:21.633Z,92.21
2022-08-14T19:51:25.825Z,93.33
2022-08-14T19:54:37.913Z,96.56
2022-08-14T19:57:52.445Z,94.54
2022-08-14T20:01:08.687Z,97.23
2022-08-14T20:04:45.159Z,93.77
2022-08-14T20:08:00.677Z,93.94
2022-08-14T20:11:58.632Z,96.59
2022-08-14T20:14:51.640Z,95.73
2022-08-14T20:17:56.657Z,94.60
2022-08-14T20:21:05.031Z,96.45
2022-08-14T20:24:30.934Z,94.53
2022-08-14T20:27:40.039Z,94.64
2022-08-14T20:30:48.653Z,95.42
2022-08-14T20:34:18.946Z,95.42
2022-08-14T20:37:27.635Z,99.17
2022-08-14T20:40:34.594Z,100.00
2022-08-14T20:43:58.624Z,100.00
2022-08-14T20:47:04.154Z,100.00
2022-08-14T20:50:17.003Z,100.00
2022-08-14T20:53:34.560Z,100.00
2022-08-14T20:56:40.753Z,100.00
2022-08-14T20:59:46.568Z,100.00
2022-08-14T21:02:52.264Z,100.00
2022-08-14T21:05:56.755Z,100.00
2022-08-14T21:09:03.578Z,100.00
2022-08-14T21:12:08.268Z,100.00
2022-08-14T21:15:32.128Z,100.00
2022-08-14T21:18:47.604Z,100.00
2022-08-14T21:21:54.746Z,100.00
2022-08-14T21:25:02.378Z,100.00
2022-08-14T21:28:20.943Z,100.00
2022-08-14T21:31:33.052Z,100.00
2022-08-14T21:34:37.643Z,100.00
2022-08-14T21:37:46.038Z,100.00
2022-08-14T21:40:53.153Z,100.00
2022-08-14T21:44:17.427Z,100.00
2022-08-14T21:47:23.632Z,100.00
2022-08-14T21:50:59.877Z,100.00
2022-08-14T21:53:59.211Z,100.00
2022-08-14T21:57:13.651Z,100.00
2022-08-14T22:00:34.698Z,100.00
2022-08-14T22:03:45.017Z,100.00
2022-08-14T22:06:52.264Z,100.00
2022-08-14T22:09:55.817Z,100.00
2022-08-14T22:13:01.210Z,100.00
2022-08-14T22:16:05.543Z,100.00
2022-08-14T22:19:43.467Z,100.00
2022-08-14T22:22:56.022Z,100.00
2022-08-14T22:26:01.674Z,100.00
2022-08-14T22:29:07.271Z,100.00
2022-08-14T22:32:18.835Z,100.00
2022-08-14T22:35:29.909Z,100.00
2022-08-14T22:38:38.837Z,100.00
2022-08-14T22:42:03.929Z,100.00
2022-08-14T22:45:38.019Z,100.00
2022-08-14T22:48:40.934Z,100.00
2022-08-14T22:51:48.222Z,100.00
2022-08-14T22:54:53.922Z,100.00
2022-08-14T22:57:56.775Z,100.00
2022-08-14T23:01:01.582Z,100.00
2022-08-14T23:04:06.289Z,100.00
2022-08-14T23:07:22.009Z,100.00
2022-08-14T23:10:34.005Z,100.00
2022-08-14T23:13:38.992Z,100.00
2022-08-14T23:16:42.624Z,100.00
2022-08-14T23:19:46.829Z,100.00
2022-08-14T23:22:52.750Z,100.00
2022-08-14T23:26:47.234Z,100.00
2022-08-14T23:29:21.077Z,100.00
2022-08-14T23:32:23.975Z,100.00
2022-08-14T23:35:28.647Z,100.00
2022-08-14T23:38:36.142Z,100.00
2022-08-14T23:41:47.124Z,100.00
2022-08-14T23:44:55.725Z,100.00
2022-08-14T23:47:59.392Z,100.00
2022-08-14T23:51:04.454Z,100.00
2022-08-14T23:54:48.117Z,100.00
2022-08-14T23:57:31.972Z,100.00
